Weather at Puka Heliport

Public forecast

Using degrees Celsius for public forecast. Weather courtesy of forecast.io.

Closest aviation weather report (METAR) to Puka Heliport

Closest report is Podgorica Airport / Podgorica Golubovci Airbase, 33.2 nm (61.4 km) NW. Retrieved 2022/07/04 15:30 UTC (0 seconds ago):

LYPG 041530Z 13004KT 080V170 9999 FEW050 SCT090 35/14 Q1012 NOSIG

Closest aviation forecast (TAF) to Puka Heliport

Closest forecast is Kukës International Airport, 24.7 nm (45.8 km) E. Retrieved 2022/07/04 12:00 UTC (3 hours ago):

TAF LAKU 041100Z 0412/0512 36014KT CAVOK TX34/0413Z TN19/0503Z BECMG 0416/0418 VRB03KT